Main page
METAR-TAF:

METAR-TAF

Airports :

Mont-De-Marsan, France

latitude: 43-55N, longitude: 000-30W, elevation: 62 m

Current weather observation

The report was made 25 minutes ago, at 22:00 UTC
Wind 8 kt from the Northwest
Temperature 18°C
Humidity 83%
Pressure 1019 hPa
Visibility 10 km or more
Broken clouds at a height of 2000 ft
Overcast at a height of 2500 ft

METAR: LFBM 182200Z AUTO 31008KT 9999 BKN020 OVC025 18/15 Q1019 TEMPO 4000 -RA

Time: 00:25 (22:25 UTC)

Forecast

The report was made 2 hours and 25 minutes ago, at 20:00 UTC
Forecast valid from 18 at 21 UTC to 19 at 21 UTC
Wind 6 kt from the Northwest
Visibility 10 km or more
Scattered clouds at a height of 3000 ft
Overcast at a height of 6000 ft
Temporary
from 18 at 21 UTC to 19 at 01 UTC
Visibility: 4000 m
light rain

TAF: LFBM 182000Z 1821/1921 31006KT 9999 SCT030 OVC060 TEMPO 1821/1901 4000 -RA

Weather observations and forecasts of more than 4000 airports (METAR and TAF reports).

The available stations are represented by yellow and red dots on the map.

Hover mouse over dot to see the name of the station.

Then click to see weather observations and forecasts.

To change the map : click on the green buttons with a black cross to zoom in, on the green button with a dash to zoom out, or on the green arrows for adjacent maps.


METAR-TAF: